sensor_id;sensor_type;location;lat;lon;timestamp;P1;durP1;ratioP1;P2;durP2;ratioP2
59207;SDS011;44977;53.132;6.408;2024-01-11T00:01:54;39.10;;;31.08;;
59207;SDS011;44977;53.132;6.408;2024-01-11T00:06:54;39.70;;;32.50;;
59207;SDS011;44977;53.132;6.408;2024-01-11T00:11:55;39.00;;;32.10;;
59207;SDS011;44977;53.132;6.408;2024-01-11T00:16:56;40.55;;;32.38;;
59207;SDS011;44977;53.132;6.408;2024-01-11T00:21:56;41.03;;;33.45;;
59207;SDS011;44977;53.132;6.408;2024-01-11T00:26:57;41.50;;;33.33;;
59207;SDS011;44977;53.132;6.408;2024-01-11T00:31:58;43.13;;;33.55;;
59207;SDS011;44977;53.132;6.408;2024-01-11T00:36:59;43.83;;;34.92;;
59207;SDS011;44977;53.132;6.408;2024-01-11T00:41:59;21.90;;;10.43;;
59207;SDS011;44977;53.132;6.408;2024-01-11T00:47:00;42.53;;;34.28;;
59207;SDS011;44977;53.132;6.408;2024-01-11T00:52:01;43.15;;;32.65;;
59207;SDS011;44977;53.132;6.408;2024-01-11T00:57:01;45.13;;;35.40;;
59207;SDS011;44977;53.132;6.408;2024-01-11T01:02:02;25.63;;;10.57;;
59207;SDS011;44977;53.132;6.408;2024-01-11T01:07:03;25.23;;;11.32;;
59207;SDS011;44977;53.132;6.408;2024-01-11T01:12:04;45.13;;;35.08;;
59207;SDS011;44977;53.132;6.408;2024-01-11T01:17:07;43.70;;;34.63;;
59207;SDS011;44977;53.132;6.408;2024-01-11T01:22:07;25.88;;;10.40;;
59207;SDS011;44977;53.132;6.408;2024-01-11T01:27:08;43.63;;;35.03;;
59207;SDS011;44977;53.132;6.408;2024-01-11T01:32:08;22.30;;;10.75;;
59207;SDS011;44977;53.132;6.408;2024-01-11T01:37:09;42.08;;;34.28;;
59207;SDS011;44977;53.132;6.408;2024-01-11T01:42:10;43.47;;;34.95;;
59207;SDS011;44977;53.132;6.408;2024-01-11T01:47:11;45.10;;;34.78;;
59207;SDS011;44977;53.132;6.408;2024-01-11T01:52:12;43.83;;;34.85;;
59207;SDS011;44977;53.132;6.408;2024-01-11T01:57:15;29.83;;;11.55;;
59207;SDS011;44977;53.132;6.408;2024-01-11T02:02:19;29.92;;;11.60;;
59207;SDS011;44977;53.132;6.408;2024-01-11T02:07:20;44.67;;;36.47;;
59207;SDS011;44977;53.132;6.408;2024-01-11T02:12:21;27.25;;;11.68;;
59207;SDS011;44977;53.132;6.408;2024-01-11T02:17:23;45.05;;;35.78;;
59207;SDS011;44977;53.132;6.408;2024-01-11T02:22:27;29.75;;;11.38;;
59207;SDS011;44977;53.132;6.408;2024-01-11T02:27:44;42.92;;;34.60;;
59207;SDS011;44977;53.132;6.408;2024-01-11T02:32:54;25.60;;;10.82;;
59207;SDS011;44977;53.132;6.408;2024-01-11T02:37:55;27.33;;;11.50;;
59207;SDS011;44977;53.132;6.408;2024-01-11T02:42:57;44.63;;;35.25;;
59207;SDS011;44977;53.132;6.408;2024-01-11T02:47:57;44.30;;;34.50;;
59207;SDS011;44977;53.132;6.408;2024-01-11T02:52:58;42.72;;;35.17;;
59207;SDS011;44977;53.132;6.408;2024-01-11T02:57:59;21.92;;;9.48;;
59207;SDS011;44977;53.132;6.408;2024-01-11T03:02:59;44.35;;;34.95;;
59207;SDS011;44977;53.132;6.408;2024-01-11T03:08:00;25.70;;;12.05;;
59207;SDS011;44977;53.132;6.408;2024-01-11T03:13:01;43.83;;;34.95;;
59207;SDS011;44977;53.132;6.408;2024-01-11T03:18:02;24.13;;;9.90;;
59207;SDS011;44977;53.132;6.408;2024-01-11T03:23:03;42.50;;;35.20;;
59207;SDS011;44977;53.132;6.408;2024-01-11T03:28:03;41.80;;;34.58;;
59207;SDS011;44977;53.132;6.408;2024-01-11T03:33:04;45.95;;;35.42;;
59207;SDS011;44977;53.132;6.408;2024-01-11T03:38:05;23.55;;;10.63;;
59207;SDS011;44977;53.132;6.408;2024-01-11T03:43:06;30.40;;;12.10;;
59207;SDS011;44977;53.132;6.408;2024-01-11T03:48:07;41.08;;;32.72;;
59207;SDS011;44977;53.132;6.408;2024-01-11T03:53:08;46.30;;;35.25;;
59207;SDS011;44977;53.132;6.408;2024-01-11T03:58:08;44.38;;;34.70;;
59207;SDS011;44977;53.132;6.408;2024-01-11T04:03:09;48.28;;;36.22;;
59207;SDS011;44977;53.132;6.408;2024-01-11T04:08:10;43.20;;;33.85;;
59207;SDS011;44977;53.132;6.408;2024-01-11T04:13:10;42.25;;;33.85;;
59207;SDS011;44977;53.132;6.408;2024-01-11T04:18:11;45.60;;;35.85;;
59207;SDS011;44977;53.132;6.408;2024-01-11T04:23:12;21.38;;;9.13;;
59207;SDS011;44977;53.132;6.408;2024-01-11T04:28:12;44.25;;;34.80;;
59207;SDS011;44977;53.132;6.408;2024-01-11T04:33:13;44.88;;;35.30;;
59207;SDS011;44977;53.132;6.408;2024-01-11T04:38:14;45.78;;;35.45;;
59207;SDS011;44977;53.132;6.408;2024-01-11T04:43:14;44.78;;;35.25;;
59207;SDS011;44977;53.132;6.408;2024-01-11T04:48:15;42.15;;;33.97;;
59207;SDS011;44977;53.132;6.408;2024-01-11T04:53:15;20.55;;;8.02;;
59207;SDS011;44977;53.132;6.408;2024-01-11T04:58:16;45.72;;;34.67;;
59207;SDS011;44977;53.132;6.408;2024-01-11T05:03:17;49.65;;;37.85;;
59207;SDS011;44977;53.132;6.408;2024-01-11T05:08:17;46.42;;;36.15;;
59207;SDS011;44977;53.132;6.408;2024-01-11T05:13:18;49.70;;;38.50;;
59207;SDS011;44977;53.132;6.408;2024-01-11T05:18:19;49.10;;;38.53;;
59207;SDS011;44977;53.132;6.408;2024-01-11T05:23:19;48.78;;;39.13;;
59207;SDS011;44977;53.132;6.408;2024-01-11T05:28:20;24.13;;;11.07;;
59207;SDS011;44977;53.132;6.408;2024-01-11T05:33:21;28.67;;;11.85;;
59207;SDS011;44977;53.132;6.408;2024-01-11T05:38:21;49.42;;;38.38;;
59207;SDS011;44977;53.132;6.408;2024-01-11T05:43:22;49.22;;;38.70;;
59207;SDS011;44977;53.132;6.408;2024-01-11T05:48:25;49.80;;;37.17;;
59207;SDS011;44977;53.132;6.408;2024-01-11T05:53:26;51.30;;;39.30;;
59207;SDS011;44977;53.132;6.408;2024-01-11T05:58:27;49.85;;;38.13;;
59207;SDS011;44977;53.132;6.408;2024-01-11T06:03:28;51.83;;;39.58;;
59207;SDS011;44977;53.132;6.408;2024-01-11T06:08:30;33.28;;;14.02;;
59207;SDS011;44977;53.132;6.408;2024-01-11T06:13:30;49.97;;;38.22;;
59207;SDS011;44977;53.132;6.408;2024-01-11T06:18:31;52.97;;;40.53;;
59207;SDS011;44977;53.132;6.408;2024-01-11T06:23:32;31.23;;;12.73;;
59207;SDS011;44977;53.132;6.408;2024-01-11T06:28:32;30.92;;;11.98;;
59207;SDS011;44977;53.132;6.408;2024-01-11T06:33:36;56.33;;;41.75;;
59207;SDS011;44977;53.132;6.408;2024-01-11T06:38:37;53.65;;;40.95;;
59207;SDS011;44977;53.132;6.408;2024-01-11T06:43:37;58.22;;;43.28;;
59207;SDS011;44977;53.132;6.408;2024-01-11T06:48:38;53.95;;;41.67;;
59207;SDS011;44977;53.132;6.408;2024-01-11T06:53:39;55.17;;;42.50;;
59207;SDS011;44977;53.132;6.408;2024-01-11T06:58:40;53.42;;;41.53;;
59207;SDS011;44977;53.132;6.408;2024-01-11T07:03:41;55.33;;;41.38;;
59207;SDS011;44977;53.132;6.408;2024-01-11T07:08:41;56.35;;;41.72;;
59207;SDS011;44977;53.132;6.408;2024-01-11T07:13:42;56.22;;;42.42;;
59207;SDS011;44977;53.132;6.408;2024-01-11T07:18:43;30.88;;;11.98;;
59207;SDS011;44977;53.132;6.408;2024-01-11T07:23:44;29.98;;;13.13;;
59207;SDS011;44977;53.132;6.408;2024-01-11T07:28:44;51.80;;;40.50;;
59207;SDS011;44977;53.132;6.408;2024-01-11T07:33:45;53.97;;;40.92;;
59207;SDS011;44977;53.132;6.408;2024-01-11T07:38:46;54.15;;;42.28;;
59207;SDS011;44977;53.132;6.408;2024-01-11T07:43:47;55.17;;;41.92;;
59207;SDS011;44977;53.132;6.408;2024-01-11T07:48:48;53.22;;;41.42;;
59207;SDS011;44977;53.132;6.408;2024-01-11T07:53:49;54.58;;;41.08;;
59207;SDS011;44977;53.132;6.408;2024-01-11T07:58:49;52.10;;;39.90;;
59207;SDS011;44977;53.132;6.408;2024-01-11T08:03:50;53.92;;;41.35;;
59207;SDS011;44977;53.132;6.408;2024-01-11T08:08:52;52.72;;;39.72;;
59207;SDS011;44977;53.132;6.408;2024-01-11T08:13:52;54.42;;;41.67;;
59207;SDS011;44977;53.132;6.408;2024-01-11T08:18:54;50.65;;;39.13;;
59207;SDS011;44977;53.132;6.408;2024-01-11T08:23:55;52.85;;;39.25;;
59207;SDS011;44977;53.132;6.408;2024-01-11T08:28:56;53.58;;;40.83;;
59207;SDS011;44977;53.132;6.408;2024-01-11T08:33:56;52.35;;;40.10;;
59207;SDS011;44977;53.132;6.408;2024-01-11T08:38:57;51.75;;;40.42;;
59207;SDS011;44977;53.132;6.408;2024-01-11T08:43:58;54.92;;;41.30;;
59207;SDS011;44977;53.132;6.408;2024-01-11T08:49:00;32.80;;;12.90;;
59207;SDS011;44977;53.132;6.408;2024-01-11T08:54:03;54.83;;;42.15;;
59207;SDS011;44977;53.132;6.408;2024-01-11T08:59:04;50.45;;;39.83;;
59207;SDS011;44977;53.132;6.408;2024-01-11T09:04:05;53.20;;;40.35;;
59207;SDS011;44977;53.132;6.408;2024-01-11T09:09:05;49.88;;;39.40;;
59207;SDS011;44977;53.132;6.408;2024-01-11T09:14:10;50.10;;;39.05;;
59207;SDS011;44977;53.132;6.408;2024-01-11T09:19:11;31.08;;;13.13;;
59207;SDS011;44977;53.132;6.408;2024-01-11T09:24:12;29.33;;;11.57;;
59207;SDS011;44977;53.132;6.408;2024-01-11T09:29:13;49.42;;;38.15;;
59207;SDS011;44977;53.132;6.408;2024-01-11T09:34:13;48.67;;;37.80;;
59207;SDS011;44977;53.132;6.408;2024-01-11T09:39:14;48.13;;;36.70;;
59207;SDS011;44977;53.132;6.408;2024-01-11T09:44:15;46.65;;;36.15;;
59207;SDS011;44977;53.132;6.408;2024-01-11T09:49:15;47.78;;;36.00;;
59207;SDS011;44977;53.132;6.408;2024-01-11T09:54:17;45.03;;;35.30;;
59207;SDS011;44977;53.132;6.408;2024-01-11T09:59:21;45.15;;;34.22;;
59207;SDS011;44977;53.132;6.408;2024-01-11T10:04:23;43.47;;;34.55;;
59207;SDS011;44977;53.132;6.408;2024-01-11T10:09:25;41.80;;;32.90;;
59207;SDS011;44977;53.132;6.408;2024-01-11T10:14:26;45.15;;;34.08;;
59207;SDS011;44977;53.132;6.408;2024-01-11T10:19:27;45.60;;;34.50;;
59207;SDS011;44977;53.132;6.408;2024-01-11T10:24:29;43.78;;;34.90;;
59207;SDS011;44977;53.132;6.408;2024-01-11T10:29:30;40.80;;;33.00;;
59207;SDS011;44977;53.132;6.408;2024-01-11T10:34:31;45.72;;;35.10;;
59207;SDS011;44977;53.132;6.408;2024-01-11T10:39:32;41.17;;;33.08;;
59207;SDS011;44977;53.132;6.408;2024-01-11T10:44:35;43.65;;;33.67;;
59207;SDS011;44977;53.132;6.408;2024-01-11T10:49:39;44.97;;;35.75;;
59207;SDS011;44977;53.132;6.408;2024-01-11T10:54:41;47.90;;;35.55;;
59207;SDS011;44977;53.132;6.408;2024-01-11T10:59:42;47.35;;;36.63;;
59207;SDS011;44977;53.132;6.408;2024-01-11T11:04:44;45.22;;;35.72;;
59207;SDS011;44977;53.132;6.408;2024-01-11T11:09:46;44.35;;;34.47;;
59207;SDS011;44977;53.132;6.408;2024-01-11T11:14:51;44.15;;;33.95;;
59207;SDS011;44977;53.132;6.408;2024-01-11T11:19:53;40.35;;;32.72;;
59207;SDS011;44977;53.132;6.408;2024-01-11T11:25:03;40.22;;;32.63;;
59207;SDS011;44977;53.132;6.408;2024-01-11T11:30:06;41.08;;;31.70;;
59207;SDS011;44977;53.132;6.408;2024-01-11T11:35:08;39.83;;;32.42;;
59207;SDS011;44977;53.132;6.408;2024-01-11T11:40:09;39.05;;;30.58;;
59207;SDS011;44977;53.132;6.408;2024-01-11T11:45:10;39.97;;;31.30;;
59207;SDS011;44977;53.132;6.408;2024-01-11T11:50:11;40.40;;;31.63;;
59207;SDS011;44977;53.132;6.408;2024-01-11T11:55:13;36.38;;;29.90;;
59207;SDS011;44977;53.132;6.408;2024-01-11T12:00:15;42.00;;;30.30;;
59207;SDS011;44977;53.132;6.408;2024-01-11T12:05:16;38.08;;;29.27;;
59207;SDS011;44977;53.132;6.408;2024-01-11T12:10:18;37.90;;;29.75;;
59207;SDS011;44977;53.132;6.408;2024-01-11T12:15:19;38.58;;;30.17;;
59207;SDS011;44977;53.132;6.408;2024-01-11T12:20:20;37.15;;;29.40;;
59207;SDS011;44977;53.132;6.408;2024-01-11T12:25:21;39.50;;;29.83;;
59207;SDS011;44977;53.132;6.408;2024-01-11T12:30:22;38.50;;;29.70;;
59207;SDS011;44977;53.132;6.408;2024-01-11T12:35:23;39.10;;;29.80;;
59207;SDS011;44977;53.132;6.408;2024-01-11T12:40:24;38.95;;;29.55;;
59207;SDS011;44977;53.132;6.408;2024-01-11T12:45:31;39.58;;;29.98;;
59207;SDS011;44977;53.132;6.408;2024-01-11T12:50:32;36.55;;;29.23;;
59207;SDS011;44977;53.132;6.408;2024-01-11T12:55:33;40.75;;;28.98;;
59207;SDS011;44977;53.132;6.408;2024-01-11T13:00:37;36.15;;;28.70;;
59207;SDS011;44977;53.132;6.408;2024-01-11T13:05:39;35.20;;;27.98;;
59207;SDS011;44977;53.132;6.408;2024-01-11T13:10:39;38.45;;;28.25;;
59207;SDS011;44977;53.132;6.408;2024-01-11T13:15:40;38.35;;;28.50;;
59207;SDS011;44977;53.132;6.408;2024-01-11T13:20:41;35.95;;;27.20;;
59207;SDS011;44977;53.132;6.408;2024-01-11T13:25:42;36.92;;;27.75;;
59207;SDS011;44977;53.132;6.408;2024-01-11T13:30:44;37.33;;;28.80;;
59207;SDS011;44977;53.132;6.408;2024-01-11T13:35:45;38.05;;;27.55;;
59207;SDS011;44977;53.132;6.408;2024-01-11T13:40:46;33.08;;;26.42;;
59207;SDS011;44977;53.132;6.408;2024-01-11T13:45:47;34.75;;;26.83;;
59207;SDS011;44977;53.132;6.408;2024-01-11T13:50:47;33.10;;;25.15;;
59207;SDS011;44977;53.132;6.408;2024-01-11T13:55:48;33.85;;;26.58;;
59207;SDS011;44977;53.132;6.408;2024-01-11T14:00:49;34.35;;;25.25;;
59207;SDS011;44977;53.132;6.408;2024-01-11T14:05:49;33.08;;;24.35;;
59207;SDS011;44977;53.132;6.408;2024-01-11T14:10:50;34.88;;;25.83;;
59207;SDS011;44977;53.132;6.408;2024-01-11T14:15:51;33.58;;;23.95;;
59207;SDS011;44977;53.132;6.408;2024-01-11T14:20:53;32.67;;;25.58;;
59207;SDS011;44977;53.132;6.408;2024-01-11T14:25:54;32.83;;;25.52;;
59207;SDS011;44977;53.132;6.408;2024-01-11T14:30:56;32.88;;;25.25;;
59207;SDS011;44977;53.132;6.408;2024-01-11T14:35:57;34.40;;;25.08;;
59207;SDS011;44977;53.132;6.408;2024-01-11T14:40:58;30.77;;;24.00;;
59207;SDS011;44977;53.132;6.408;2024-01-11T14:45:58;34.33;;;24.55;;
59207;SDS011;44977;53.132;6.408;2024-01-11T14:50:59;33.78;;;24.77;;
59207;SDS011;44977;53.132;6.408;2024-01-11T14:56:00;32.28;;;24.10;;
59207;SDS011;44977;53.132;6.408;2024-01-11T15:01:01;35.33;;;26.48;;
59207;SDS011;44977;53.132;6.408;2024-01-11T15:06:02;39.22;;;27.17;;
59207;SDS011;44977;53.132;6.408;2024-01-11T15:11:03;35.00;;;26.35;;
59207;SDS011;44977;53.132;6.408;2024-01-11T15:16:03;35.67;;;27.58;;
59207;SDS011;44977;53.132;6.408;2024-01-11T15:21:04;36.72;;;28.23;;
59207;SDS011;44977;53.132;6.408;2024-01-11T15:26:05;36.28;;;28.65;;
59207;SDS011;44977;53.132;6.408;2024-01-11T15:31:06;36.90;;;27.63;;
59207;SDS011;44977;53.132;6.408;2024-01-11T15:36:08;38.65;;;27.50;;
59207;SDS011;44977;53.132;6.408;2024-01-11T15:41:09;36.17;;;26.85;;
59207;SDS011;44977;53.132;6.408;2024-01-11T15:46:10;34.60;;;26.10;;
59207;SDS011;44977;53.132;6.408;2024-01-11T15:51:11;35.45;;;26.92;;
59207;SDS011;44977;53.132;6.408;2024-01-11T15:56:12;34.22;;;26.45;;
59207;SDS011;44977;53.132;6.408;2024-01-11T16:01:12;37.53;;;26.60;;
59207;SDS011;44977;53.132;6.408;2024-01-11T16:06:13;36.80;;;27.23;;
59207;SDS011;44977;53.132;6.408;2024-01-11T16:11:14;36.05;;;27.42;;
59207;SDS011;44977;53.132;6.408;2024-01-11T16:16:15;34.85;;;26.45;;
59207;SDS011;44977;53.132;6.408;2024-01-11T16:21:15;35.75;;;26.40;;
59207;SDS011;44977;53.132;6.408;2024-01-11T16:26:16;38.28;;;28.42;;
59207;SDS011;44977;53.132;6.408;2024-01-11T16:31:20;37.97;;;28.98;;
59207;SDS011;44977;53.132;6.408;2024-01-11T16:36:23;41.22;;;31.33;;
59207;SDS011;44977;53.132;6.408;2024-01-11T16:41:24;38.47;;;31.85;;
59207;SDS011;44977;53.132;6.408;2024-01-11T16:46:25;39.72;;;30.52;;
59207;SDS011;44977;53.132;6.408;2024-01-11T16:51:25;40.92;;;31.75;;
59207;SDS011;44977;53.132;6.408;2024-01-11T16:56:26;39.47;;;31.98;;
59207;SDS011;44977;53.132;6.408;2024-01-11T17:01:27;44.45;;;35.85;;
59207;SDS011;44977;53.132;6.408;2024-01-11T17:06:28;40.97;;;33.88;;
59207;SDS011;44977;53.132;6.408;2024-01-11T17:11:29;40.22;;;31.60;;
59207;SDS011;44977;53.132;6.408;2024-01-11T17:16:31;42.78;;;34.38;;
59207;SDS011;44977;53.132;6.408;2024-01-11T17:21:32;39.63;;;31.52;;
59207;SDS011;44977;53.132;6.408;2024-01-11T17:26:33;43.85;;;34.15;;
59207;SDS011;44977;53.132;6.408;2024-01-11T17:31:34;43.65;;;35.20;;
59207;SDS011;44977;53.132;6.408;2024-01-11T17:36:37;43.75;;;35.55;;
59207;SDS011;44977;53.132;6.408;2024-01-11T17:41:38;43.47;;;35.70;;
59207;SDS011;44977;53.132;6.408;2024-01-11T17:46:41;44.97;;;34.55;;
59207;SDS011;44977;53.132;6.408;2024-01-11T17:51:42;44.95;;;34.63;;
59207;SDS011;44977;53.132;6.408;2024-01-11T17:56:43;44.10;;;35.25;;
59207;SDS011;44977;53.132;6.408;2024-01-11T18:01:44;45.85;;;36.95;;
59207;SDS011;44977;53.132;6.408;2024-01-11T18:06:45;50.50;;;40.30;;
59207;SDS011;44977;53.132;6.408;2024-01-11T18:11:45;49.78;;;41.80;;
59207;SDS011;44977;53.132;6.408;2024-01-11T18:16:48;47.88;;;40.08;;
59207;SDS011;44977;53.132;6.408;2024-01-11T18:21:49;48.97;;;39.78;;
59207;SDS011;44977;53.132;6.408;2024-01-11T18:26:49;48.20;;;39.63;;
59207;SDS011;44977;53.132;6.408;2024-01-11T18:31:50;47.70;;;38.85;;
59207;SDS011;44977;53.132;6.408;2024-01-11T18:36:51;49.63;;;39.08;;
59207;SDS011;44977;53.132;6.408;2024-01-11T18:41:51;47.42;;;38.72;;
59207;SDS011;44977;53.132;6.408;2024-01-11T18:46:52;47.85;;;37.65;;
59207;SDS011;44977;53.132;6.408;2024-01-11T18:51:53;48.25;;;37.50;;
59207;SDS011;44977;53.132;6.408;2024-01-11T18:56:53;47.80;;;34.85;;
59207;SDS011;44977;53.132;6.408;2024-01-11T19:01:54;43.15;;;29.65;;
59207;SDS011;44977;53.132;6.408;2024-01-11T19:06:55;45.15;;;31.65;;
59207;SDS011;44977;53.132;6.408;2024-01-11T19:11:58;38.10;;;26.92;;
59207;SDS011;44977;53.132;6.408;2024-01-11T19:17:00;35.75;;;23.45;;
59207;SDS011;44977;53.132;6.408;2024-01-11T19:22:03;30.73;;;16.55;;
59207;SDS011;44977;53.132;6.408;2024-01-11T19:27:04;26.95;;;15.75;;
59207;SDS011;44977;53.132;6.408;2024-01-11T19:32:05;28.90;;;14.20;;
59207;SDS011;44977;53.132;6.408;2024-01-11T19:37:06;26.27;;;12.05;;
59207;SDS011;44977;53.132;6.408;2024-01-11T19:42:07;22.95;;;11.40;;
59207;SDS011;44977;53.132;6.408;2024-01-11T19:47:08;26.55;;;10.02;;
59207;SDS011;44977;53.132;6.408;2024-01-11T19:52:08;24.17;;;12.50;;
59207;SDS011;44977;53.132;6.408;2024-01-11T19:57:09;26.90;;;10.23;;
59207;SDS011;44977;53.132;6.408;2024-01-11T20:02:10;21.38;;;10.07;;
59207;SDS011;44977;53.132;6.408;2024-01-11T20:07:10;22.70;;;9.77;;
59207;SDS011;44977;53.132;6.408;2024-01-11T20:12:11;21.45;;;11.07;;
59207;SDS011;44977;53.132;6.408;2024-01-11T20:17:12;24.77;;;10.00;;
59207;SDS011;44977;53.132;6.408;2024-01-11T20:22:13;24.55;;;10.20;;
59207;SDS011;44977;53.132;6.408;2024-01-11T20:27:14;22.58;;;9.15;;
59207;SDS011;44977;53.132;6.408;2024-01-11T20:32:14;23.10;;;9.77;;
59207;SDS011;44977;53.132;6.408;2024-01-11T20:37:15;22.08;;;9.25;;
59207;SDS011;44977;53.132;6.408;2024-01-11T20:42:16;19.63;;;9.05;;
59207;SDS011;44977;53.132;6.408;2024-01-11T20:47:16;21.30;;;8.75;;
59207;SDS011;44977;53.132;6.408;2024-01-11T20:52:22;26.30;;;11.63;;
59207;SDS011;44977;53.132;6.408;2024-01-11T20:57:23;18.50;;;8.38;;
59207;SDS011;44977;53.132;6.408;2024-01-11T21:02:24;21.35;;;8.80;;
59207;SDS011;44977;53.132;6.408;2024-01-11T21:07:24;22.33;;;8.30;;
59207;SDS011;44977;53.132;6.408;2024-01-11T21:12:25;19.70;;;8.07;;
59207;SDS011;44977;53.132;6.408;2024-01-11T21:17:26;21.98;;;8.18;;
59207;SDS011;44977;53.132;6.408;2024-01-11T21:22:26;20.98;;;8.65;;
59207;SDS011;44977;53.132;6.408;2024-01-11T21:27:27;24.33;;;10.35;;
59207;SDS011;44977;53.132;6.408;2024-01-11T21:32:28;24.15;;;9.40;;
59207;SDS011;44977;53.132;6.408;2024-01-11T21:37:29;19.38;;;8.10;;
59207;SDS011;44977;53.132;6.408;2024-01-11T21:42:30;18.92;;;8.75;;
59207;SDS011;44977;53.132;6.408;2024-01-11T21:47:32;19.50;;;8.50;;
59207;SDS011;44977;53.132;6.408;2024-01-11T21:52:32;18.92;;;8.00;;
59207;SDS011;44977;53.132;6.408;2024-01-11T21:57:34;19.25;;;7.82;;
59207;SDS011;44977;53.132;6.408;2024-01-11T22:02:34;22.77;;;8.93;;
59207;SDS011;44977;53.132;6.408;2024-01-11T22:07:35;20.67;;;8.35;;
59207;SDS011;44977;53.132;6.408;2024-01-11T22:12:36;19.48;;;9.05;;
59207;SDS011;44977;53.132;6.408;2024-01-11T22:17:36;21.58;;;8.57;;
59207;SDS011;44977;53.132;6.408;2024-01-11T22:22:37;20.27;;;8.48;;
59207;SDS011;44977;53.132;6.408;2024-01-11T22:27:38;18.75;;;8.60;;
59207;SDS011;44977;53.132;6.408;2024-01-11T22:32:39;18.95;;;8.80;;
59207;SDS011;44977;53.132;6.408;2024-01-11T22:37:40;17.83;;;8.80;;
59207;SDS011;44977;53.132;6.408;2024-01-11T22:42:41;18.90;;;10.13;;
59207;SDS011;44977;53.132;6.408;2024-01-11T22:47:41;20.52;;;10.48;;
59207;SDS011;44977;53.132;6.408;2024-01-11T22:52:43;18.85;;;10.10;;
59207;SDS011;44977;53.132;6.408;2024-01-11T22:57:43;18.00;;;9.75;;
59207;SDS011;44977;53.132;6.408;2024-01-11T23:02:44;17.98;;;9.73;;
59207;SDS011;44977;53.132;6.408;2024-01-11T23:07:45;19.40;;;8.23;;
59207;SDS011;44977;53.132;6.408;2024-01-11T23:12:46;20.25;;;8.88;;
59207;SDS011;44977;53.132;6.408;2024-01-11T23:17:46;18.20;;;8.20;;
59207;SDS011;44977;53.132;6.408;2024-01-11T23:22:47;20.40;;;8.57;;
59207;SDS011;44977;53.132;6.408;2024-01-11T23:27:48;20.75;;;9.50;;
59207;SDS011;44977;53.132;6.408;2024-01-11T23:32:48;21.90;;;9.25;;
59207;SDS011;44977;53.132;6.408;2024-01-11T23:37:49;15.52;;;7.70;;
59207;SDS011;44977;53.132;6.408;2024-01-11T23:42:50;22.15;;;9.30;;
59207;SDS011;44977;53.132;6.408;2024-01-11T23:47:52;19.45;;;8.20;;
59207;SDS011;44977;53.132;6.408;2024-01-11T23:52:52;21.33;;;8.93;;
59207;SDS011;44977;53.132;6.408;2024-01-11T23:57:53;19.67;;;7.75;;
